Time;durP1;ratioP1;P1;durP2;ratioP2;P2;SDS_P1;SDS_P2;PMS_P1;PMS_P2;Temp;Humidity;BMP_temperature;BMP_pressure;BME280_temperature;BME280_humidity;BME280_pressure;Samples;Min_cycle;Max_cycle;Signal;HPM_P1;HPM_P2
2021/12/08 00:00:33;;;;;;;20.77;7.13;;;2.10;99.90;;;;;;5069185;28;20044;-50
2021/12/08 00:03:00;;;;;;;16.30;6.88;;;2.00;99.90;;;;;;5041659;28;20550;-49
2021/12/08 00:05:27;;;;;;;13.45;3.88;;;2.00;99.90;;;;;;5069559;28;20055;-50
2021/12/08 00:07:53;;;;;;;25.92;8.35;;;2.00;99.90;;;;;;5069062;28;20119;-53
2021/12/08 00:10:52;;;;;;;21.02;8.30;;;2.00;99.90;;;;;;5069469;28;20127;-54
2021/12/08 00:13:14;;;;;;;18.13;6.55;;;2.00;99.90;;;;;;5068951;28;20044;-54
2021/12/08 00:15:45;;;;;;;18.63;8.15;;;2.00;99.90;;;;;;5068201;28;20046;-54
2021/12/08 00:18:22;;;;;;;28.75;10.35;;;2.00;99.90;;;;;;5069086;28;20044;-56
2021/12/08 00:20:48;;;;;;;21.05;7.85;;;1.90;99.90;;;;;;5069041;28;20619;-56
2021/12/08 00:23:15;;;;;;;18.85;8.00;;;1.90;99.90;;;;;;5069307;28;20494;-56
2021/12/08 00:25:42;;;;;;;17.98;8.55;;;2.00;99.90;;;;;;5048742;28;20534;-56
2021/12/08 00:28:09;;;;;;;27.40;10.65;;;2.00;99.90;;;;;;5064590;28;20053;-58
2021/12/08 00:30:37;;;;;;;24.63;8.82;;;2.80;99.90;;;;;;5066864;28;20462;-56
2021/12/08 00:33:04;;;;;;;23.45;8.93;;;2.00;99.90;;;;;;5065427;28;20044;-57
2021/12/08 00:35:30;;;;;;;20.02;8.63;;;2.00;99.90;;;;;;5067340;28;20489;-57
2021/12/08 00:37:57;;;;;;;22.17;8.40;;;2.00;99.90;;;;;;5066790;28;20041;-57
2021/12/08 00:40:24;;;;;;;22.17;7.32;;;2.10;99.90;;;;;;5069879;28;20060;-57
2021/12/08 00:42:50;;;;;;;23.90;8.45;;;2.10;99.90;;;;;;5069705;28;20087;-56
2021/12/08 00:45:18;;;;;;;21.05;8.75;;;2.10;99.90;;;;;;5050491;28;20048;-57
2021/12/08 00:47:45;;;;;;;23.13;8.68;;;2.10;99.90;;;;;;5051916;28;20076;-57
2021/12/08 00:50:11;;;;;;;29.50;7.40;;;2.10;99.90;;;;;;5070033;28;20071;-57
2021/12/08 00:52:38;;;;;;;24.00;8.75;;;2.10;99.90;;;;;;5070255;28;20032;-57
2021/12/08 00:55:07;;;;;;;32.63;11.27;;;2.10;99.90;;;;;;5069834;28;20048;-57
2021/12/08 00:57:34;;;;;;;20.30;8.95;;;2.20;99.90;;;;;;5067866;28;20040;-57
2021/12/08 01:00:02;;;;;;;23.13;8.60;;;2.10;99.90;;;;;;5051464;28;20047;-57
2021/12/08 01:02:28;;;;;;;20.70;9.10;;;2.20;99.90;;;;;;5069509;28;20040;-57
2021/12/08 01:04:54;;;;;;;25.55;8.82;;;2.20;99.90;;;;;;5069478;28;20036;-57
2021/12/08 01:07:19;;;;;;;19.38;7.85;;;2.20;99.90;;;;;;5069877;28;20431;-57
2021/12/08 01:09:46;;;;;;;19.95;8.57;;;2.20;99.90;;;;;;5068459;28;20040;-57
2021/12/08 01:12:12;;;;;;;19.83;8.07;;;2.20;99.90;;;;;;5069914;28;20414;-57
2021/12/08 01:14:38;;;;;;;22.08;6.93;;;2.30;99.90;;;;;;5050280;28;20074;-58
2021/12/08 01:17:05;;;;;;;15.43;8.00;;;2.30;99.90;;;;;;5049511;28;20045;-57
2021/12/08 01:19:31;;;;;;;23.15;9.23;;;2.30;99.90;;;;;;5069444;28;20037;-57
2021/12/08 01:21:57;;;;;;;19.25;8.27;;;2.40;99.90;;;;;;5069593;28;20048;-57
2021/12/08 01:24:22;;;;;;;18.45;7.75;;;2.40;99.90;;;;;;5069460;28;20043;-57
2021/12/08 01:26:48;;;;;;;22.52;8.48;;;2.20;99.90;;;;;;5069340;28;20123;-57
2021/12/08 01:29:14;;;;;;;18.48;8.32;;;2.40;99.90;;;;;;5068878;28;20050;-57
2021/12/08 01:31:49;;;;;;;14.50;6.00;;;2.40;99.90;;;;;;5069702;28;20059;-56
2021/12/08 01:34:16;;;;;;;20.20;7.97;;;2.50;99.90;;;;;;5069800;28;20051;-57
2021/12/08 01:36:42;;;;;;;27.25;8.30;;;2.50;99.90;;;;;;5069077;28;20044;-56
2021/12/08 01:39:09;;;;;;;21.88;8.55;;;3.10;99.90;;;;;;5069005;28;20051;-56
2021/12/08 01:41:35;;;;;;;18.40;7.65;;;2.50;99.90;;;;;;5069690;28;20040;-55
2021/12/08 01:46:47;;;;;;;19.75;7.47;;;2.50;99.90;;;;;;5067697;28;20048;-56
2021/12/08 01:49:13;;;;;;;19.75;7.63;;;2.50;99.90;;;;;;5068868;28;20036;-55
2021/12/08 01:51:39;;;;;;;22.70;8.48;;;2.50;99.90;;;;;;5069283;28;20036;-55
2021/12/08 01:54:06;;;;;;;17.98;8.88;;;2.50;99.90;;;;;;5068835;28;20111;-56
2021/12/08 01:56:34;;;;;;;19.63;8.80;;;2.40;99.90;;;;;;5069053;28;20048;-56
2021/12/08 01:59:02;;;;;;;15.65;7.88;;;2.60;99.90;;;;;;5069226;28;20059;-57
2021/12/08 02:01:31;;;;;;;21.88;8.05;;;2.50;99.90;;;;;;5068388;28;20041;-57
2021/12/08 02:03:56;;;;;;;19.65;7.25;;;2.60;99.90;;;;;;5068411;28;20494;-55
2021/12/08 02:06:23;;;;;;;16.10;8.82;;;2.60;99.90;;;;;;5068278;28;20401;-58
2021/12/08 02:09:09;;;;;;;17.23;8.98;;;2.40;99.90;;;;;;5068786;28;20041;-54
2021/12/08 02:11:39;;;;;;;20.60;9.15;;;2.60;99.90;;;;;;5068482;28;20040;-55
2021/12/08 02:14:05;;;;;;;16.13;7.68;;;2.60;99.90;;;;;;5065427;28;20079;-56
2021/12/08 02:16:31;;;;;;;18.38;7.53;;;2.40;99.90;;;;;;5068745;28;20466;-55
2021/12/08 02:18:58;;;;;;;19.08;7.43;;;2.50;99.90;;;;;;5049894;28;20040;-56
2021/12/08 02:21:39;;;;;;;17.02;8.35;;;2.60;99.90;;;;;;5067541;28;20097;-55
2021/12/08 02:24:08;;;;;;;18.63;9.63;;;2.60;99.90;;;;;;5068314;28;20619;-55
2021/12/08 02:26:36;;;;;;;19.38;8.32;;;2.60;99.90;;;;;;5050148;28;20048;-54
2021/12/08 02:29:07;;;;;;;16.70;8.75;;;2.60;99.90;;;;;;5067740;28;20052;-56
2021/12/08 02:31:54;;;;;;;18.15;7.88;;;2.50;99.90;;;;;;5065926;28;20451;-55
2021/12/08 02:48:05;;;;;;;21.90;10.25;;;2.60;99.90;;;;;;5068274;28;20051;-57
2021/12/08 02:50:36;;;;;;;24.90;11.93;;;2.60;99.90;;;;;;5067740;28;20040;-55
2021/12/08 02:53:05;;;;;;;23.67;9.52;;;2.60;99.90;;;;;;5068168;28;20041;-56
2021/12/08 02:55:32;;;;;;;20.73;9.82;;;2.70;99.90;;;;;;5067995;28;20044;-56
2021/12/08 02:58:00;;;;;;;21.23;9.70;;;2.50;99.90;;;;;;5067870;28;20097;-55
2021/12/08 03:00:28;;;;;;;16.02;8.13;;;2.60;99.90;;;;;;5067441;28;20032;-55
2021/12/08 03:02:57;;;;;;;20.42;9.43;;;2.70;99.90;;;;;;5067573;28;20403;-56
2021/12/08 03:05:23;;;;;;;22.80;8.82;;;2.60;99.90;;;;;;5067571;28;20044;-55
2021/12/08 03:07:49;;;;;;;23.75;9.95;;;2.60;99.90;;;;;;5067953;28;20402;-55
2021/12/08 03:10:19;;;;;;;14.77;8.48;;;2.70;99.90;;;;;;5067439;28;20040;-52
2021/12/08 03:12:44;;;;;;;17.13;9.18;;;2.70;99.90;;;;;;5066172;28;20098;-54
2021/12/08 03:15:12;;;;;;;17.33;9.77;;;2.70;99.90;;;;;;5067459;28;20195;-54
2021/12/08 03:17:39;;;;;;;16.48;8.57;;;2.70;99.90;;;;;;5067147;28;20041;-55
2021/12/08 03:20:13;;;;;;;15.60;7.45;;;2.80;99.90;;;;;;5067130;28;20049;-55
2021/12/08 03:22:44;;;;;;;30.70;10.27;;;2.80;99.90;;;;;;5065643;28;20040;-55
2021/12/08 03:25:14;;;;;;;24.08;10.40;;;2.80;99.90;;;;;;5067232;28;20036;-55
2021/12/08 03:27:48;;;;;;;18.55;10.40;;;2.80;99.90;;;;;;5066829;28;20060;-57
2021/12/08 03:30:19;;;;;;;21.48;11.68;;;2.80;99.90;;;;;;5067033;28;20159;-54
2021/12/08 03:32:45;;;;;;;18.58;11.90;;;2.90;99.90;;;;;;5066286;28;20045;-55
2021/12/08 03:35:15;;;;;;;20.63;12.48;;;2.90;99.90;;;;;;5067288;28;20394;-55
2021/12/08 03:37:44;;;;;;;30.75;12.85;;;2.90;99.90;;;;;;5066788;28;20052;-54
2021/12/08 03:40:14;;;;;;;22.13;11.75;;;2.90;99.90;;;;;;5049468;28;20071;-54
2021/12/08 03:42:43;;;;;;;20.48;11.80;;;3.00;99.90;;;;;;5047397;28;20060;-55
2021/12/08 03:45:19;;;;;;;23.80;12.52;;;2.90;99.90;;;;;;5067428;28;20047;-55
2021/12/08 03:47:47;;;;;;;31.30;15.43;;;3.00;99.90;;;;;;5068288;28;20032;-54
2021/12/08 03:50:16;;;;;;;23.90;12.60;;;4.80;99.90;;;;;;5067404;28;20055;-54
2021/12/08 03:52:47;;;;;;;22.00;13.00;;;3.00;99.90;;;;;;5067422;28;20107;-54
2021/12/08 03:55:28;;;;;;;22.63;14.13;;;3.30;99.90;;;;;;5049383;28;20051;-55
2021/12/08 03:57:53;;;;;;;26.05;13.20;;;2.90;99.90;;;;;;5066876;28;20052;-53
2021/12/08 04:00:23;;;;;;;27.33;15.07;;;3.10;99.90;;;;;;5067198;28;20033;-53
2021/12/08 04:02:49;;;;;;;23.95;14.25;;;3.00;99.90;;;;;;5066954;28;20443;-53
2021/12/08 04:05:19;;;;;;;36.78;16.65;;;3.10;99.90;;;;;;5067308;28;20047;-54
2021/12/08 04:07:48;;;;;;;38.03;17.65;;;3.20;99.90;;;;;;5066412;28;20486;-54
2021/12/08 04:10:19;;;;;;;38.78;17.52;;;3.20;99.90;;;;;;5067175;28;20119;-54
2021/12/08 04:12:51;;;;;;;34.22;17.25;;;3.20;99.90;;;;;;5065073;28;20036;-55
2021/12/08 04:15:17;;;;;;;;;;;3.20;99.90;;;;;;5067761;28;20128;-54
2021/12/08 04:17:47;;;;;;;30.13;16.50;;;3.30;99.90;;;;;;5048674;28;19928;-53
2021/12/08 04:20:40;;;;;;;31.42;17.77;;;3.90;99.90;;;;;;5066592;28;20083;-51
2021/12/08 04:23:08;;;;;;;29.50;17.15;;;3.40;99.90;;;;;;5065309;28;20454;-55
2021/12/08 04:25:38;;;;;;;33.25;19.00;;;3.80;99.90;;;;;;5063725;28;20048;-55
2021/12/08 04:28:10;;;;;;;29.02;18.13;;;3.40;99.90;;;;;;5064494;28;20052;-55
2021/12/08 04:30:48;;;;;;;39.33;20.38;;;3.40;99.90;;;;;;5065305;28;20084;-54
2021/12/08 04:33:14;;;;;;;37.28;20.80;;;3.20;99.90;;;;;;5066853;28;20095;-54
2021/12/08 04:35:41;;;;;;;36.95;22.10;;;3.40;99.90;;;;;;5066322;28;20048;-56
2021/12/08 04:38:11;;;;;;;46.45;22.55;;;3.50;99.90;;;;;;5066409;28;20040;-55
2021/12/08 04:40:59;;;;;;;33.08;20.52;;;3.50;99.90;;;;;;5066374;28;20474;-54
2021/12/08 04:43:39;;;;;;;33.80;20.63;;;3.50;99.90;;;;;;5067211;28;20072;-54
2021/12/08 04:46:33;;;;;;;35.88;22.65;;;3.60;99.90;;;;;;5069205;28;20058;-56
2021/12/08 04:52:04;;;;;;;47.67;22.92;;;3.60;99.90;;;;;;5069666;28;20068;-53
2021/12/08 05:06:39;;;;;;;44.38;26.05;;;3.70;99.90;;;;;;5068548;28;20135;-56
2021/12/08 05:09:20;;;;;;;50.15;25.92;;;3.70;99.90;;;;;;5067630;28;20047;-54
2021/12/08 05:11:52;;;;;;;40.22;23.55;;;3.70;99.90;;;;;;5068282;28;20045;-54
2021/12/08 05:14:27;;;;;;;53.00;28.38;;;3.60;99.90;;;;;;5069920;28;20036;-54
2021/12/08 05:17:02;;;;;;;47.08;26.00;;;3.80;99.90;;;;;;5068010;28;20049;-55
2021/12/08 05:19:33;;;;;;;63.22;29.95;;;3.80;99.90;;;;;;5069711;28;20482;-54
2021/12/08 05:22:25;;;;;;;42.72;24.42;;;3.80;99.90;;;;;;5071149;28;20037;-52
2021/12/08 05:24:54;;;;;;;47.60;25.65;;;3.80;99.90;;;;;;5068454;28;20123;-54
2021/12/08 05:27:29;;;;;;;49.95;25.40;;;3.80;99.90;;;;;;5067869;28;20406;-55
2021/12/08 05:30:11;;;;;;;49.17;25.25;;;3.70;99.90;;;;;;5068457;28;20052;-55
2021/12/08 05:32:38;;;;;;;38.50;24.25;;;3.60;99.90;;;;;;5069922;28;20371;-54
2021/12/08 05:35:07;;;;;;;51.15;26.10;;;3.70;99.90;;;;;;5069348;28;20044;-54
2021/12/08 05:37:33;;;;;;;45.83;25.13;;;3.60;99.90;;;;;;5069124;28;20045;-55
2021/12/08 05:39:59;;;;;;;39.03;23.85;;;3.60;99.90;;;;;;5051050;28;20102;-54
2021/12/08 05:42:35;;;;;;;36.60;22.15;;;3.50;99.90;;;;;;5069106;28;20044;-52
2021/12/08 05:45:05;;;;;;;43.20;22.90;;;3.50;99.90;;;;;;5068954;28;20366;-55
2021/12/08 05:47:31;;;;;;;45.33;21.23;;;3.50;99.90;;;;;;5069482;28;20034;-55
2021/12/08 05:49:57;;;;;;;43.08;22.80;;;3.30;99.90;;;;;;5068876;28;20040;-54
2021/12/08 05:52:24;;;;;;;45.95;22.65;;;3.40;99.90;;;;;;5068826;28;20032;-53
2021/12/08 05:54:50;;;;;;;42.80;23.38;;;3.40;99.90;;;;;;5068575;28;20040;-55
2021/12/08 05:57:26;;;;;;;40.95;21.90;;;3.40;99.90;;;;;;5068138;28;20047;-53
2021/12/08 06:00:12;;;;;;;47.30;22.83;;;3.30;99.90;;;;;;5068527;28;20040;-56
2021/12/08 06:02:39;;;;;;;40.55;20.60;;;3.10;99.90;;;;;;5067709;28;20041;-54
2021/12/08 06:05:06;;;;;;;45.50;22.70;;;3.30;99.90;;;;;;5068783;28;20037;-52
2021/12/08 06:07:32;;;;;;;45.92;22.20;;;3.20;99.90;;;;;;5068640;28;20070;-54
2021/12/08 06:10:17;;;;;;;47.95;22.65;;;3.20;99.90;;;;;;5069091;28;20497;-53
2021/12/08 06:12:44;;;;;;;46.65;23.45;;;3.10;99.90;;;;;;5068088;28;20044;-54
2021/12/08 06:15:10;;;;;;;36.58;20.13;;;3.00;99.90;;;;;;5068931;28;20051;-54
2021/12/08 06:17:36;;;;;;;50.13;22.85;;;3.00;99.90;;;;;;5069145;28;20039;-55
2021/12/08 06:20:05;;;;;;;42.15;22.25;;;3.00;99.90;;;;;;5069814;28;20024;-53
2021/12/08 06:22:31;;;;;;;41.50;21.15;;;3.00;99.90;;;;;;5068660;28;20473;-50
2021/12/08 06:24:57;;;;;;;85.55;29.60;;;2.90;99.90;;;;;;5068571;28;20039;-54
2021/12/08 06:27:22;;;;;;;62.67;25.40;;;3.00;99.90;;;;;;5068801;28;20060;-55
2021/12/08 06:29:49;;;;;;;34.92;20.55;;;2.60;99.90;;;;;;5069181;28;20456;-54
2021/12/08 06:32:16;;;;;;;42.88;19.98;;;2.90;99.90;;;;;;5050485;28;20094;-54
2021/12/08 06:34:46;;;;;;;46.60;21.83;;;2.80;99.90;;;;;;5069168;28;20545;-53
2021/12/08 06:37:19;;;;;;;38.45;19.40;;;2.90;99.90;;;;;;5067841;28;20537;-54
2021/12/08 06:40:10;;;;;;;39.60;21.20;;;3.00;99.90;;;;;;5067979;28;20043;-53
2021/12/08 06:42:38;;;;;;;43.08;22.17;;;3.00;99.90;;;;;;5066949;28;20051;-54
2021/12/08 06:45:08;;;;;;;39.55;20.70;;;3.00;99.90;;;;;;5065705;28;20390;-54
2021/12/08 06:47:35;;;;;;;54.85;22.90;;;2.90;99.90;;;;;;5066026;28;20036;-54
2021/12/08 06:50:07;;;;;;;47.67;21.92;;;2.90;99.90;;;;;;5067310;28;20050;-50
2021/12/08 06:52:39;;;;;;;48.47;22.23;;;2.90;99.90;;;;;;5049353;28;20449;-54
2021/12/08 06:55:10;;;;;;;58.45;24.00;;;2.90;99.90;;;;;;5065665;28;20386;-55
2021/12/08 06:57:53;;;;;;;45.45;21.02;;;2.90;99.90;;;;;;5068243;28;20127;-53
2021/12/08 07:00:49;;;;;;;45.92;21.27;;;2.90;99.90;;;;;;5067352;28;20546;-54
2021/12/08 07:08:30;;;;;;;35.92;18.73;;;2.70;99.90;;;;;;5067766;28;20055;-53
2021/12/08 07:10:56;;;;;;;42.80;20.23;;;2.90;99.90;;;;;;5066352;28;20037;-55
2021/12/08 07:13:25;;;;;;;56.40;23.35;;;2.90;99.90;;;;;;5067503;28;20079;-54
2021/12/08 07:16:15;;;;;;;51.47;20.73;;;2.90;99.90;;;;;;5065852;28;20504;-53
2021/12/08 07:18:54;;;;;;;38.97;17.23;;;2.90;99.90;;;;;;5066447;28;20060;-52
2021/12/08 07:21:24;;;;;;;48.13;19.90;;;2.80;99.90;;;;;;5067658;28;20040;-54
2021/12/08 07:24:04;;;;;;;37.15;17.98;;;2.90;99.90;;;;;;5067529;28;20036;-52
2021/12/08 07:26:33;;;;;;;46.67;17.88;;;2.90;99.90;;;;;;5068161;28;20119;-54
2021/12/08 07:29:01;;;;;;;28.85;15.50;;;2.90;99.90;;;;;;5067204;28;20056;-54
2021/12/08 07:31:40;;;;;;;37.08;15.20;;;2.90;99.90;;;;;;5067016;28;20036;-57
2021/12/08 07:34:09;;;;;;;41.97;16.83;;;2.80;99.90;;;;;;5065535;28;20451;-55
2021/12/08 07:36:40;;;;;;;33.92;15.63;;;2.80;99.90;;;;;;5028736;28;20083;-53
2021/12/08 07:39:16;;;;;;;28.45;13.77;;;2.80;99.90;;;;;;5065242;28;20130;-54
2021/12/08 07:41:47;;;;;;;36.88;14.70;;;2.80;99.90;;;;;;5065075;28;20289;-53
2021/12/08 07:44:15;;;;;;;32.25;13.25;;;2.80;99.90;;;;;;5048666;28;20056;-55
2021/12/08 07:46:48;;;;;;;38.55;14.43;;;2.90;99.90;;;;;;5067186;28;20505;-53
2021/12/08 07:49:19;;;;;;;32.67;13.40;;;2.80;99.90;;;;;;5049061;28;20615;-51
2021/12/08 07:51:52;;;;;;;31.00;13.50;;;2.80;99.90;;;;;;5068036;28;20459;-50
2021/12/08 07:54:20;;;;;;;28.42;11.93;;;2.90;99.90;;;;;;5067754;28;20572;-55
2021/12/08 07:56:49;;;;;;;22.73;11.13;;;2.90;99.90;;;;;;5068184;28;20044;-52
2021/12/08 07:59:18;;;;;;;22.50;9.73;;;2.90;99.90;;;;;;5067556;28;20123;-52
2021/12/08 08:01:47;;;;;;;26.85;9.43;;;3.20;99.90;;;;;;5067890;28;20044;-54
2021/12/08 08:04:16;;;;;;;21.73;9.10;;;3.10;99.90;;;;;;5067935;28;20115;-52
2021/12/08 08:06:47;;;;;;;19.52;7.57;;;3.10;99.90;;;;;;5068425;28;20101;-53
2021/12/08 08:09:20;;;;;;;16.98;7.40;;;3.10;99.90;;;;;;5068153;28;20158;-50
2021/12/08 08:11:55;;;;;;;17.58;6.75;;;3.20;99.90;;;;;;5067993;28;20510;-54
2021/12/08 08:14:22;;;;;;;14.85;6.07;;;3.20;99.90;;;;;;5067886;28;20119;-53
2021/12/08 08:16:51;;;;;;;16.13;6.05;;;3.20;99.90;;;;;;5068175;28;20045;-54
2021/12/08 08:19:18;;;;;;;15.10;5.38;;;3.30;99.90;;;;;;5069937;28;20386;-54
2021/12/08 08:21:51;;;;;;;21.15;6.38;;;4.20;99.90;;;;;;5072441;28;20517;-53
2021/12/08 08:24:18;;;;;;;16.23;5.80;;;3.40;99.90;;;;;;5071759;28;20036;-50
2021/12/08 08:26:46;;;;;;;18.10;5.75;;;3.40;99.90;;;;;;5073295;28;20044;-52
2021/12/08 08:29:13;;;;;;;18.30;5.38;;;3.40;99.90;;;;;;5071668;28;20060;-53
2021/12/08 08:32:00;;;;;;;12.65;4.18;;;3.20;99.90;;;;;;5071565;28;20052;-54
2021/12/08 08:34:34;;;;;;;14.40;5.07;;;3.50;99.90;;;;;;5071661;28;20044;-52
2021/12/08 08:37:02;;;;;;;19.08;4.50;;;3.50;99.90;;;;;;5071987;28;20055;-53
2021/12/08 08:39:32;;;;;;;17.73;4.43;;;3.60;99.90;;;;;;5071111;28;20077;-50
2021/12/08 08:42:08;;;;;;;16.95;5.10;;;3.60;99.90;;;;;;5071277;28;20036;-51
2021/12/08 08:44:58;;;;;;;26.58;5.18;;;3.70;99.90;;;;;;5071180;28;20040;-53
2021/12/08 08:47:29;;;;;;;13.40;3.55;;;3.80;99.90;;;;;;5071106;28;20112;-51
2021/12/08 08:49:56;;;;;;;16.02;4.45;;;3.70;99.90;;;;;;5071013;28;20506;-51
2021/12/08 08:52:34;;;;;;;12.30;4.28;;;3.80;99.90;;;;;;5071415;28;20045;-53
2021/12/08 08:55:03;;;;;;;15.10;3.90;;;3.90;99.90;;;;;;5071253;28;20048;-54
2021/12/08 08:57:34;;;;;;;14.70;4.47;;;4.00;99.90;;;;;;5070836;28;20522;-54
2021/12/08 09:00:32;;;;;;;14.02;3.03;;;4.00;99.90;;;;;;5052045;28;20052;-53
2021/12/08 09:03:02;;;;;;;9.80;3.33;;;4.10;99.90;;;;;;5053040;28;20398;-54
2021/12/08 09:05:33;;;;;;;8.63;3.13;;;4.10;99.90;;;;;;5070674;28;20043;-50
2021/12/08 09:08:03;;;;;;;23.38;4.57;;;4.10;99.90;;;;;;5071274;28;20040;-53
2021/12/08 09:10:48;;;;;;;14.10;3.25;;;4.00;99.90;;;;;;5070656;28;20036;-53
2021/12/08 09:13:35;;;;;;;14.30;3.22;;;4.50;99.90;;;;;;5070872;28;20052;-50
2021/12/08 09:16:15;;;;;;;20.77;4.45;;;4.10;99.90;;;;;;5070712;28;20083;-52
2021/12/08 09:19:07;;;;;;;15.85;3.75;;;4.20;99.90;;;;;;5070623;28;20484;-50
2021/12/08 09:21:42;;;;;;;13.15;3.20;;;4.30;99.90;;;;;;5070477;28;20106;-51
2021/12/08 09:24:16;;;;;;;16.20;3.92;;;4.50;99.90;;;;;;5070808;28;20379;-53
2021/12/08 09:26:49;;;;;;;17.20;5.03;;;3.30;99.90;;;;;;5070622;28;20051;-53
2021/12/08 09:29:35;;;;;;;17.35;3.95;;;4.70;99.90;;;;;;5068349;28;20064;-53
2021/12/08 09:32:08;;;;;;;23.17;4.25;;;4.80;99.90;;;;;;5051372;28;20059;-51
2021/12/08 09:34:42;;;;;;;11.00;3.30;;;4.90;99.90;;;;;;5070071;28;20097;-51
2021/12/08 09:37:12;;;;;;;14.60;4.50;;;4.80;99.90;;;;;;5070649;28;20048;-51
2021/12/08 09:39:47;;;;;;;15.77;3.38;;;4.70;99.90;;;;;;5070279;28;20545;-51
2021/12/08 09:42:23;;;;;;;11.85;3.55;;;4.70;99.90;;;;;;5070431;28;20121;-50
2021/12/08 09:44:59;;;;;;;12.38;3.08;;;4.70;99.90;;;;;;5070114;28;20079;-52
2021/12/08 09:47:29;;;;;;;20.35;3.88;;;4.60;99.90;;;;;;5070500;28;20044;-55
2021/12/08 09:49:57;;;;;;;21.27;4.53;;;4.30;99.90;;;;;;5070309;28;20093;-51
2021/12/08 09:52:27;;;;;;;15.88;3.47;;;6.60;99.90;;;;;;5070615;28;20044;-55
2021/12/08 09:54:55;;;;;;;15.68;3.90;;;4.50;99.90;;;;;;5034443;28;20550;-51
2021/12/08 09:57:21;;;;;;;19.50;4.05;;;4.50;99.90;;;;;;5016082;28;20063;-52
2021/12/08 09:59:56;;;;;;;13.50;3.45;;;4.60;99.90;;;;;;5052834;28;20031;-45
2021/12/08 10:02:29;;;;;;;13.57;3.00;;;4.70;99.90;;;;;;5070366;28;20452;-57
2021/12/08 10:04:57;;;;;;;15.82;3.67;;;5.80;99.90;;;;;;5068902;28;20510;-53
2021/12/08 10:07:26;;;;;;;14.88;4.00;;;4.70;99.90;;;;;;5051532;28;20475;-63
2021/12/08 10:09:51;;;;;;;15.88;3.00;;;3.50;99.90;;;;;;5069237;28;20043;-53
2021/12/08 10:12:17;;;;;;;12.45;3.13;;;4.50;99.90;;;;;;5070151;28;20394;-63
2021/12/08 10:14:46;;;;;;;17.55;4.88;;;4.60;99.90;;;;;;5069484;28;20040;-58
2021/12/08 10:17:13;;;;;;;14.48;4.43;;;4.60;99.90;;;;;;5069510;28;20044;-60
2021/12/08 10:19:40;;;;;;;14.45;3.58;;;5.60;99.90;;;;;;5069940;28;20072;-60
2021/12/08 10:22:20;;;;;;;12.43;3.80;;;4.60;99.90;;;;;;5069415;28;20072;-54
2021/12/08 10:25:10;;;;;;;18.50;4.32;;;4.80;99.90;;;;;;5050298;28;20044;-56
2021/12/08 10:28:05;;;;;;;14.10;4.20;;;4.90;99.90;;;;;;5048825;28;20068;-57
2021/12/08 10:30:37;;;;;;;13.30;3.78;;;5.00;99.90;;;;;;5049347;28;20057;-52
2021/12/08 10:33:10;;;;;;;;;;;5.00;99.90;;;;;;5067923;28;20040;-59
2021/12/08 10:35:49;;;;;;;14.25;3.67;;;4.80;99.90;;;;;;5051897;28;20711;-59
2021/12/08 10:38:16;;;;;;;12.07;3.28;;;5.80;99.90;;;;;;5069525;28;20114;-54
2021/12/08 10:41:16;;;;;;;16.17;3.88;;;5.50;99.90;;;;;;5069360;28;20059;-58
2021/12/08 10:43:57;;;;;;;17.25;4.05;;;5.00;99.90;;;;;;5069378;28;20102;-60
2021/12/08 10:46:33;;;;;;;16.17;3.97;;;5.80;99.90;;;;;;5069529;28;20119;-60
2021/12/08 10:54:47;;;;;;;14.70;3.90;;;4.70;99.90;;;;;;5049757;28;20107;-50
2021/12/08 10:57:37;;;;;;;14.88;3.83;;;4.80;99.90;;;;;;5067089;28;20352;-51
2021/12/08 11:00:18;;;;;;;16.13;3.92;;;4.80;99.90;;;;;;5064713;28;20033;-55
2021/12/08 11:02:47;;;;;;;11.95;4.18;;;4.80;99.90;;;;;;5048935;28;20056;-58
2021/12/08 11:05:25;;;;;;;16.88;4.32;;;4.90;99.90;;;;;;5049565;28;20048;-57
2021/12/08 11:08:03;;;;;;;16.27;4.53;;;4.90;99.90;;;;;;5049568;28;20106;-46
2021/12/08 11:10:41;;;;;;;13.50;4.20;;;4.90;99.90;;;;;;5051666;28;20405;-45
2021/12/08 11:13:08;;;;;;;11.52;3.35;;;5.00;99.90;;;;;;5050895;28;20083;-45
2021/12/08 11:15:35;;;;;;;13.35;4.57;;;5.00;99.90;;;;;;5057132;28;20517;-46
2021/12/08 11:18:21;;;;;;;16.33;5.15;;;5.00;99.90;;;;;;5071681;28;20048;-45
2021/12/08 11:21:00;;;;;;;14.27;3.83;;;5.10;99.90;;;;;;5069540;28;20086;-44
2021/12/08 11:23:43;;;;;;;17.92;4.47;;;5.10;99.90;;;;;;5051960;28;20072;-45
2021/12/08 11:26:18;;;;;;;14.88;4.32;;;5.10;99.90;;;;;;5069644;28;20052;-48
2021/12/08 11:28:50;;;;;;;10.60;4.05;;;5.00;99.90;;;;;;5069474;28;20072;-44
2021/12/08 11:31:17;;;;;;;14.73;4.13;;;5.00;99.90;;;;;;5071241;28;20405;-46
2021/12/08 11:33:50;;;;;;;20.95;4.60;;;4.90;99.90;;;;;;5064155;28;20041;-46
2021/12/08 11:36:22;;;;;;;9.80;3.30;;;4.90;99.90;;;;;;5051560;28;20044;-45
2021/12/08 11:38:49;;;;;;;10.45;3.55;;;5.00;99.90;;;;;;5049891;28;20800;-57
2021/12/08 11:41:27;;;;;;;15.82;3.50;;;5.00;99.90;;;;;;5052021;28;20040;-58
2021/12/08 11:43:55;;;;;;;17.33;3.55;;;5.50;99.90;;;;;;5068375;28;20040;-59
2021/12/08 11:46:23;;;;;;;13.30;3.38;;;5.20;99.90;;;;;;5068662;28;20102;-60
2021/12/08 11:49:04;;;;;;;13.68;3.45;;;5.10;99.90;;;;;;5067820;28;20055;-58
2021/12/08 11:51:32;;;;;;;11.60;3.53;;;5.10;99.90;;;;;;5040624;28;20048;-61
2021/12/08 11:54:00;;;;;;;16.35;4.47;;;5.10;99.90;;;;;;5058219;28;20047;-50
2021/12/08 11:56:31;;;;;;;13.77;2.85;;;5.10;99.90;;;;;;5056547;28;20113;-58
2021/12/08 11:58:57;;;;;;;12.55;2.83;;;4.80;99.90;;;;;;5037460;28;20037;-48
2021/12/08 12:01:23;;;;;;;13.20;3.72;;;4.90;99.90;;;;;;5056073;28;20036;-51
2021/12/08 12:03:49;;;;;;;11.55;3.75;;;6.20;99.90;;;;;;5051739;28;20033;-57
2021/12/08 12:06:15;;;;;;;14.43;3.17;;;5.00;99.90;;;;;;5058386;28;20037;-56
2021/12/08 12:08:41;;;;;;;13.48;3.15;;;6.20;99.90;;;;;;5058940;28;20385;-50
2021/12/08 12:11:07;;;;;;;15.65;4.65;;;5.10;99.90;;;;;;5055495;28;20036;-59
2021/12/08 12:13:33;;;;;;;14.63;3.30;;;5.10;99.90;;;;;;5060135;28;20132;-49
2021/12/08 12:15:59;;;;;;;19.45;3.08;;;6.30;99.90;;;;;;5059123;28;20044;-50
2021/12/08 12:18:31;;;;;;;10.40;2.33;;;5.20;99.90;;;;;;5037351;28;20052;-47
2021/12/08 12:21:05;;;;;;;;;;;5.20;99.90;;;;;;5059671;28;20037;-58
2021/12/08 12:24:12;;;;;;;11.98;3.20;;;5.70;99.90;;;;;;5057634;28;19927;-51
2021/12/08 12:27:04;;;;;;;10.80;2.63;;;5.20;99.90;;;;;;5058941;28;20471;-50
2021/12/08 12:29:49;;;;;;;;;;;5.10;99.90;;;;;;5057471;28;20077;-49
2021/12/08 12:32:22;;;;;;;12.65;3.25;;;5.10;99.90;;;;;;5055219;28;19963;-49
2021/12/08 12:34:52;;;;;;;7.90;2.45;;;5.10;99.90;;;;;;5053360;28;20037;-51
2021/12/08 12:37:32;;;;;;;14.05;3.15;;;5.10;99.90;;;;;;5055100;28;20037;-55
2021/12/08 12:40:02;;;;;;;9.63;2.67;;;5.20;99.90;;;;;;5054343;28;20044;-56
2021/12/08 12:42:45;;;;;;;11.88;2.30;;;5.20;99.90;;;;;;5056885;28;20446;-58
2021/12/08 12:45:14;;;;;;;14.25;3.35;;;5.20;99.90;;;;;;5037378;28;20391;-58
2021/12/08 12:47:41;;;;;;;12.13;3.45;;;5.00;99.90;;;;;;5053284;28;20037;-46
2021/12/08 12:50:21;;;;;;;10.40;2.50;;;5.00;99.90;;;;;;5053964;28;20539;-52
2021/12/08 12:52:56;;;;;;;9.65;2.40;;;5.20;99.90;;;;;;5056347;28;20045;-57
2021/12/08 12:55:24;;;;;;;12.77;2.72;;;4.90;99.90;;;;;;5045009;28;20040;-48
2021/12/08 12:58:03;;;;;;;13.25;2.53;;;5.10;99.90;;;;;;5053613;28;20040;-49
2021/12/08 13:00:39;;;;;;;10.48;2.45;;;4.90;99.90;;;;;;5054157;28;20443;-63
2021/12/08 13:03:06;;;;;;;7.28;2.15;;;4.70;99.90;;;;;;5058622;28;20564;-52
2021/12/08 13:05:55;;;;;;;8.95;2.47;;;5.00;99.90;;;;;;5059805;28;20036;-58
2021/12/08 13:08:36;;;;;;;11.70;2.03;;;5.00;99.90;;;;;;5058100;28;20044;-58
2021/12/08 13:11:41;;;;;;;12.77;1.92;;;5.50;99.90;;;;;;5059393;28;20119;-58
2021/12/08 13:14:20;;;;;;;7.93;2.10;;;5.90;99.90;;;;;;5054740;28;20055;-48
2021/12/08 13:16:46;;;;;;;13.77;2.85;;;5.10;99.90;;;;;;5042809;28;20044;-51
2021/12/08 13:19:11;;;;;;;9.30;2.63;;;5.20;99.90;;;;;;5057915;28;20473;-54
2021/12/08 13:21:37;;;;;;;9.55;2.22;;;5.10;99.90;;;;;;5054009;28;20041;-59
2021/12/08 13:24:03;;;;;;;7.30;1.73;;;5.60;99.90;;;;;;5058445;28;20482;-56
2021/12/08 13:26:31;;;;;;;10.55;2.13;;;5.20;99.90;;;;;;5057594;28;20041;-47
2021/12/08 13:29:17;;;;;;;6.68;1.85;;;5.10;99.90;;;;;;5058882;28;20057;-48
2021/12/08 13:31:59;;;;;;;13.63;2.28;;;4.10;99.90;;;;;;5055892;28;20045;-49
2021/12/08 13:34:31;;;;;;;11.63;1.92;;;5.10;99.90;;;;;;5057013;28;20116;-58
2021/12/08 13:37:19;;;;;;;13.98;2.80;;;5.10;99.90;;;;;;5059832;28;20097;-59
2021/12/08 13:39:48;;;;;;;12.60;2.97;;;5.20;99.90;;;;;;5058353;28;20062;-59
2021/12/08 13:42:28;;;;;;;10.15;2.30;;;5.20;99.90;;;;;;5061907;28;20060;-59
2021/12/08 13:45:10;;;;;;;7.75;1.25;;;5.10;99.90;;;;;;5059988;28;20048;-50
2021/12/08 13:47:41;;;;;;;8.45;1.67;;;3.70;99.90;;;;;;5055788;28;20127;-58
2021/12/08 13:50:09;;;;;;;9.77;2.25;;;5.10;99.90;;;;;;5059570;28;20036;-58
2021/12/08 13:52:38;;;;;;;12.75;2.25;;;5.10;99.90;;;;;;5056595;28;20033;-59